createdAt,value
2018-03-24T00:00:57.348Z,13.70
2018-03-24T00:03:52.314Z,17.00
2018-03-24T00:06:46.095Z,17.43
2018-03-24T00:09:38.609Z,13.97
2018-03-24T00:12:30.694Z,17.07
2018-03-24T00:15:24.057Z,15.57
2018-03-24T00:18:18.779Z,15.10
2018-03-24T00:21:11.650Z,15.27
2018-03-24T00:24:05.518Z,15.60
2018-03-24T00:26:58.308Z,16.50
2018-03-24T00:29:50.426Z,13.53
2018-03-24T00:32:42.837Z,15.40
2018-03-24T00:35:35.649Z,18.17
2018-03-24T00:38:29.284Z,13.63
2018-03-24T00:41:22.434Z,14.47
2018-03-24T00:44:14.957Z,15.63
2018-03-24T00:47:07.922Z,18.63
2018-03-24T00:50:00.821Z,12.03
2018-03-24T00:52:53.503Z,11.80
2018-03-24T00:55:45.893Z,21.10
2018-03-24T00:58:38.025Z,19.17
2018-03-24T01:01:32.391Z,20.47
2018-03-24T01:04:25.352Z,11.13
2018-03-24T01:07:18.428Z,13.47
2018-03-24T01:10:12.535Z,17.43
2018-03-24T01:13:07.557Z,19.40
2018-03-24T01:16:01.179Z,19.93
2018-03-24T01:18:54.418Z,16.23
2018-03-24T01:21:46.619Z,19.30
2018-03-24T01:24:39.530Z,14.67
2018-03-24T01:27:32.285Z,18.97
2018-03-24T01:30:24.310Z,15.60
2018-03-24T01:33:16.721Z,22.63
2018-03-24T01:36:15.182Z,25.13
2018-03-24T01:39:07.241Z,19.23
2018-03-24T01:41:59.292Z,21.43
2018-03-24T01:44:51.388Z,19.47
2018-03-24T01:47:44.688Z,22.43
2018-03-24T01:50:37.042Z,21.30
2018-03-24T01:53:35.317Z,22.57
2018-03-24T01:56:27.715Z,25.00
2018-03-24T01:59:23.060Z,22.13
2018-03-24T02:02:16.387Z,25.30
2018-03-24T02:05:08.499Z,29.33
2018-03-24T02:08:08.887Z,21.77
2018-03-24T02:11:06.306Z,23.53
2018-03-24T02:14:02.577Z,23.40
2018-03-24T02:16:55.066Z,23.67
2018-03-24T02:19:50.443Z,26.63
2018-03-24T02:22:42.862Z,25.13
2018-03-24T02:25:36.425Z,25.57
2018-03-24T02:28:28.667Z,23.17
2018-03-24T02:31:20.693Z,24.93
2018-03-24T02:34:16.568Z,27.27
2018-03-24T02:37:10.058Z,25.00
2018-03-24T02:40:03.260Z,25.87
2018-03-24T02:42:57.175Z,28.50
2018-03-24T02:45:50.553Z,26.50
2018-03-24T02:48:43.308Z,24.70
2018-03-24T02:51:37.179Z,27.83
2018-03-24T02:54:42.954Z,27.93
2018-03-24T02:57:36.251Z,27.53
2018-03-24T03:00:28.936Z,29.93
2018-03-24T03:03:23.336Z,30.60
2018-03-24T03:06:16.868Z,27.63
2018-03-24T03:09:10.984Z,32.27
2018-03-24T03:12:06.537Z,32.43
2018-03-24T03:14:59.307Z,30.87
2018-03-24T03:17:51.864Z,29.20
2018-03-24T03:20:48.600Z,31.93
2018-03-24T03:23:43.243Z,36.63
2018-03-24T03:26:36.821Z,29.03
2018-03-24T03:29:30.850Z,28.43
2018-03-24T03:32:28.099Z,27.73
2018-03-24T03:35:21.503Z,29.83
2018-03-24T03:38:14.539Z,32.27
2018-03-24T03:41:08.669Z,29.77
2018-03-24T03:44:01.133Z,29.33
2018-03-24T03:46:54.149Z,29.30
2018-03-24T03:49:47.826Z,26.90
2018-03-24T03:52:43.138Z,28.57
2018-03-24T03:55:35.257Z,26.60
2018-03-24T03:58:27.907Z,29.50
2018-03-24T04:01:19.927Z,29.03
2018-03-24T04:04:13.211Z,30.60
2018-03-24T04:07:08.370Z,29.53
2018-03-24T04:10:03.774Z,24.50
2018-03-24T04:12:58.174Z,26.67
2018-03-24T04:15:51.651Z,28.90
2018-03-24T04:18:47.595Z,26.57
2018-03-24T04:21:40.486Z,30.23
2018-03-24T04:24:33.792Z,27.63
2018-03-24T04:27:25.818Z,29.13
2018-03-24T04:30:18.085Z,29.03
2018-03-24T04:33:11.021Z,33.57
2018-03-24T04:36:06.098Z,30.90
2018-03-24T04:39:14.882Z,28.43
2018-03-24T04:42:08.234Z,29.40
2018-03-24T04:45:00.438Z,26.13
2018-03-24T04:48:00.597Z,30.10
2018-03-24T04:50:54.870Z,26.20
2018-03-24T04:54:01.879Z,25.00
2018-03-24T04:56:54.132Z,26.80
2018-03-24T04:59:50.184Z,29.50
2018-03-24T05:02:42.538Z,27.80
2018-03-24T05:05:35.768Z,30.33
2018-03-24T05:08:27.736Z,24.47
2018-03-24T05:11:22.754Z,29.67
2018-03-24T05:14:18.733Z,24.37
2018-03-24T05:17:23.218Z,29.60
2018-03-24T05:20:15.995Z,25.77
2018-03-24T05:23:08.277Z,27.20
2018-03-24T05:26:05.380Z,23.47
2018-03-24T05:28:58.766Z,26.73
2018-03-24T05:31:52.436Z,22.30
2018-03-24T05:34:45.460Z,22.27
2018-03-24T05:37:39.540Z,25.77
2018-03-24T05:40:33.735Z,25.87
2018-03-24T05:43:26.382Z,24.97
2018-03-24T05:46:19.547Z,22.57
2018-03-24T05:49:11.472Z,23.57
2018-03-24T05:52:03.723Z,27.20
2018-03-24T05:55:03.557Z,22.20
2018-03-24T05:57:59.388Z,22.70
2018-03-24T06:00:52.491Z,23.20
2018-03-24T06:03:49.350Z,24.77
2018-03-24T06:06:42.948Z,33.00
2018-03-24T06:09:35.672Z,23.63
2018-03-24T06:12:28.115Z,27.53
2018-03-24T06:15:23.412Z,23.83
2018-03-24T06:18:30.669Z,22.97
2018-03-24T06:21:26.754Z,24.90
2018-03-24T06:24:20.099Z,28.00
2018-03-24T06:27:13.689Z,28.00
2018-03-24T06:30:11.540Z,27.37
2018-03-24T06:33:19.617Z,29.40
2018-03-24T06:36:18.739Z,27.23
2018-03-24T06:39:11.724Z,35.17
2018-03-24T06:42:05.388Z,29.37
2018-03-24T06:45:02.514Z,42.20
2018-03-24T06:47:55.574Z,34.10
2018-03-24T06:50:52.278Z,32.20
2018-03-24T06:53:47.281Z,27.47
2018-03-24T06:56:39.621Z,38.10
2018-03-24T06:59:32.846Z,30.17
2018-03-24T07:02:26.106Z,37.00
2018-03-24T07:05:18.448Z,30.43
2018-03-24T07:08:12.617Z,29.17
2018-03-24T07:11:07.481Z,33.33
2018-03-24T07:14:08.285Z,31.40
2018-03-24T07:20:22.430Z,34.87
2018-03-24T07:23:31.982Z,31.73
2018-03-24T07:26:38.698Z,36.47
2018-03-24T07:29:39.402Z,32.63
2018-03-24T07:32:39.837Z,40.53
2018-03-24T07:35:55.933Z,34.67
2018-03-24T07:38:57.688Z,31.77
2018-03-24T07:42:06.392Z,36.00
2018-03-24T07:45:06.284Z,35.20
2018-03-24T07:48:05.532Z,29.23
2018-03-24T07:51:04.906Z,36.27
2018-03-24T07:54:24.019Z,34.57
2018-03-24T07:57:24.106Z,35.80
2018-03-24T08:00:23.646Z,38.50
2018-03-24T08:03:24.235Z,38.57
2018-03-24T08:09:36.740Z,33.97
2018-03-24T08:12:36.216Z,39.67
2018-03-24T08:15:36.895Z,36.43
2018-03-24T08:18:37.090Z,32.73
